Time,TemperatureF,DewpointF,PressureIn,WindDirection,WindDirectionDegrees,WindSpeedMPH,WindSpeedGustMPH,Humidity,HourlyPrecipIn,Conditions,Clouds,dailyrainin,SoftwareType,DateUTC
2013-06-07 00:00:00,74.7,72.2,29.76,SW,215,0.0,7.0,92,0.00,,,2.23,VWS V14.00,2013-06-07 04:00:00,
2013-06-07 00:01:00,74.8,72.0,29.76,SSW,192,0.0,12.0,91,0.00,,,2.23,VWS V14.00,2013-06-07 04:01:00,
2013-06-07 00:02:00,74.8,72.0,29.76,SW,214,0.0,5.0,91,0.00,,,0.00,VWS V14.00,2013-06-07 04:02:00,
2013-06-07 00:03:00,74.8,72.0,29.76,SSW,197,0.0,5.0,91,0.00,,,0.00,VWS V14.00,2013-06-07 04:03:00,
2013-06-07 00:05:00,74.8,72.0,29.76,SW,226,3.0,6.0,91,0.00,,,0.00,VWS V14.00,2013-06-07 04:05:00,
2013-06-07 00:10:00,74.8,72.0,29.76,South,187,10.0,10.0,91,0.00,,,0.00,VWS V14.00,2013-06-07 04:10:00,
2013-06-07 00:15:00,74.8,72.0,29.76,SW,222,0.0,11.0,91,0.00,,,0.00,VWS V14.00,2013-06-07 04:15:00,
2013-06-07 00:21:00,74.8,72.0,29.76,SW,218,1.0,11.0,91,0.00,,,0.00,VWS V14.00,2013-06-07 04:21:00,
2013-06-07 00:26:00,74.9,72.1,29.76,SW,232,0.0,11.0,91,0.00,,,0.00,VWS V14.00,2013-06-07 04:26:00,
2013-06-07 00:30:00,74.9,72.4,29.76,South,179,0.0,11.0,92,0.00,,,2.23,VWS V14.00,2013-06-07 04:30:00,
2013-06-07 00:31:00,74.8,72.0,29.76,SSW,202,4.0,11.0,91,0.00,,,0.00,VWS V14.00,2013-06-07 04:31:00,
2013-06-07 00:36:00,74.8,71.7,29.76,South,190,4.0,6.0,90,0.00,,,0.00,VWS V14.00,2013-06-07 04:36:00,
2013-06-07 00:41:00,74.7,71.6,29.76,South,191,0.0,6.0,90,0.00,,,0.00,VWS V14.00,2013-06-07 04:41:00,
2013-06-07 00:46:00,74.7,71.9,29.76,SSW,195,6.0,6.0,91,0.00,,,0.00,VWS V14.00,2013-06-07 04:46:00,
2013-06-07 00:51:00,74.7,71.9,29.76,SW,217,0.0,7.0,91,0.00,,,0.00,VWS V14.00,2013-06-07 04:51:00,
2013-06-07 00:56:00,74.7,71.9,29.76,SW,231,0.0,7.0,91,0.00,,,0.00,VWS V14.00,2013-06-07 04:56:00,
2013-06-07 01:00:00,74.8,72.0,29.76,South,178,4.0,12.0,91,0.00,,,0.00,VWS V14.00,2013-06-07 05:00:00,
2013-06-07 01:01:00,74.7,71.6,29.76,SSW,205,0.0,9.0,90,0.00,,,0.00,VWS V14.00,2013-06-07 05:01:00,
2013-06-07 01:06:00,74.6,71.5,29.76,SW,233,0.0,5.0,90,0.00,,,0.00,VWS V14.00,2013-06-07 05:06:00,
2013-06-07 01:12:00,74.6,71.5,29.76,SW,225,0.0,7.0,90,0.00,,,0.00,VWS V14.00,2013-06-07 05:12:00,
2013-06-07 01:17:00,74.6,71.5,29.76,WSW,242,3.0,7.0,90,0.00,,,0.00,VWS V14.00,2013-06-07 05:17:00,
2013-06-07 01:22:00,74.6,71.5,29.76,SW,215,0.0,7.0,90,0.00,,,0.00,VWS V14.00,2013-06-07 05:22:00,
2013-06-07 01:27:00,74.5,71.4,29.76,West,263,0.0,7.0,90,0.00,,,0.00,VWS V14.00,2013-06-07 05:27:00,
2013-06-07 01:30:00,74.8,72.0,29.76,WSW,242,0.0,11.0,91,0.00,,,0.00,VWS V14.00,2013-06-07 05:30:00,
2013-06-07 01:32:00,74.5,71.4,29.76,WSW,253,2.0,3.0,90,0.00,,,0.00,VWS V14.00,2013-06-07 05:32:00,
2013-06-07 01:37:00,74.5,71.4,29.76,SSW,193,3.0,5.0,90,0.00,,,0.00,VWS V14.00,2013-06-07 05:37:00,
2013-06-07 01:42:00,74.6,71.8,29.76,SSW,195,0.0,5.0,91,0.00,,,0.00,VWS V14.00,2013-06-07 05:42:00,
2013-06-07 01:47:00,74.6,71.8,29.77,SSW,193,0.0,5.0,91,0.00,,,0.00,VWS V14.00,2013-06-07 05:47:00,
2013-06-07 01:52:00,74.6,71.8,29.76,SW,217,0.0,5.0,91,0.00,,,0.00,VWS V14.00,2013-06-07 05:52:00,
2013-06-07 01:57:00,74.5,71.7,29.76,SW,223,0.0,5.0,91,0.00,,,0.00,VWS V14.00,2013-06-07 05:57:00,
2013-06-07 02:00:00,74.7,71.6,29.76,SSW,209,0.0,9.0,90,0.00,,,0.00,VWS V14.00,2013-06-07 06:00:00,
2013-06-07 02:03:00,74.5,71.7,29.76,South,183,0.0,0.0,91,0.00,,,0.00,VWS V14.00,2013-06-07 06:03:00,
2013-06-07 02:08:00,74.5,71.7,29.76,SSW,213,5.0,6.0,91,0.00,,,0.00,VWS V14.00,2013-06-07 06:08:00,
2013-06-07 02:13:00,74.4,71.6,29.76,WSW,251,0.0,6.0,91,0.00,,,0.00,VWS V14.00,2013-06-07 06:13:00,
2013-06-07 02:18:00,74.4,71.6,29.76,WSW,242,0.0,6.0,91,0.00,,,0.00,VWS V14.00,2013-06-07 06:18:00,
2013-06-07 02:23:00,74.4,71.6,29.76,SSW,198,2.0,6.0,91,0.00,,,0.00,VWS V14.00,2013-06-07 06:23:00,
2013-06-07 02:28:00,74.4,71.6,29.76,SSE,157,0.0,6.0,91,0.00,,,0.00,VWS V14.00,2013-06-07 06:28:00,
2013-06-07 02:30:00,74.5,71.4,29.76,SW,221,3.0,7.0,90,0.00,,,0.00,VWS V14.00,2013-06-07 06:30:00,
2013-06-07 02:33:00,74.3,71.5,29.76,South,184,0.0,0.0,91,0.00,,,0.00,VWS V14.00,2013-06-07 06:33:00,
2013-06-07 02:38:00,74.3,71.5,29.76,SW,219,0.0,1.0,91,0.00,,,0.00,VWS V14.00,2013-06-07 06:38:00,
2013-06-07 02:43:00,74.2,71.4,29.76,SW,232,0.0,1.0,91,0.00,,,0.00,VWS V14.00,2013-06-07 06:43:00,
2013-06-07 02:48:00,74.2,71.4,29.76,WSW,246,2.0,5.0,91,0.00,,,0.00,VWS V14.00,2013-06-07 06:48:00,
2013-06-07 02:54:00,74.2,71.4,29.76,South,186,0.0,5.0,91,0.00,,,0.00,VWS V14.00,2013-06-07 06:54:00,
2013-06-07 02:59:00,74.2,71.4,29.76,SSW,211,0.0,5.0,91,0.00,,,0.00,VWS V14.00,2013-06-07 06:59:00,
2013-06-07 03:00:00,74.5,71.7,29.76,South,182,0.0,5.0,91,0.00,,,0.00,VWS V14.00,2013-06-07 07:00:00,
2013-06-07 03:04:00,74.2,71.7,29.76,SW,225,0.0,3.0,92,0.00,,,0.00,VWS V14.00,2013-06-07 07:04:00,
2013-06-07 03:10:00,74.2,71.7,29.76,South,180,5.0,5.0,92,0.00,,,0.00,VWS V14.00,2013-06-07 07:10:00,
2013-06-07 03:15:00,74.1,71.6,29.76,SSW,210,0.0,5.0,92,0.00,,,0.00,VWS V14.00,2013-06-07 07:15:00,
2013-06-07 03:20:00,74.1,71.6,29.76,SSW,202,0.0,5.0,92,0.00,,,0.00,VWS V14.00,2013-06-07 07:20:00,
2013-06-07 03:25:00,74.1,71.6,29.77,South,188,0.0,5.0,92,0.00,,,0.00,VWS V14.00,2013-06-07 07:25:00,
2013-06-07 03:30:00,74.1,71.6,29.77,South,179,0.0,5.0,92,0.00,,,0.00,VWS V14.00,2013-06-07 07:30:00,
2013-06-07 03:35:00,74.1,71.6,29.77,SW,230,0.0,2.0,92,0.00,,,0.00,VWS V14.00,2013-06-07 07:35:00,
2013-06-07 03:40:00,74.1,71.6,29.77,SW,219,0.0,6.0,92,0.00,,,0.00,VWS V14.00,2013-06-07 07:40:00,
2013-06-07 03:45:00,74.1,71.6,29.77,SW,215,4.0,6.0,92,0.00,,,0.00,VWS V14.00,2013-06-07 07:45:00,
2013-06-07 03:50:00,74.1,71.6,29.77,WSW,240,0.0,6.0,92,0.00,,,0.00,VWS V14.00,2013-06-07 07:50:00,
2013-06-07 03:55:00,74.1,71.6,29.77,SW,214,0.0,6.0,92,0.00,,,0.00,VWS V14.00,2013-06-07 07:55:00,
2013-06-07 04:00:00,74.2,71.7,29.76,SW,234,0.0,5.0,92,0.00,,,0.00,VWS V14.00,2013-06-07 08:00:00,
2013-06-07 04:01:00,74.1,71.6,29.77,WSW,245,0.0,6.0,92,0.00,,,0.00,VWS V14.00,2013-06-07 08:01:00,
2013-06-07 04:06:00,74.1,71.6,29.77,WSW,250,0.0,0.0,92,0.00,,,0.00,VWS V14.00,2013-06-07 08:06:00,
2013-06-07 04:11:00,74.1,71.3,29.77,WSW,252,6.0,6.0,91,0.00,,,0.00,VWS V14.00,2013-06-07 08:11:00,
2013-06-07 04:16:00,74.0,71.2,29.77,SW,217,0.0,6.0,91,0.00,,,0.00,VWS V14.00,2013-06-07 08:16:00,
2013-06-07 04:21:00,74.0,71.5,29.77,SW,226,0.0,6.0,92,0.00,,,0.00,VWS V14.00,2013-06-07 08:21:00,
2013-06-07 04:26:00,74.0,71.5,29.77,SSE,150,0.0,6.0,92,0.00,,,0.00,VWS V14.00,2013-06-07 08:26:00,
2013-06-07 04:30:00,74.1,71.6,29.76,WSW,246,2.0,6.0,92,0.00,,,0.00,VWS V14.00,2013-06-07 08:30:00,
2013-06-07 04:31:00,74.0,71.5,29.77,SW,234,0.0,6.0,92,0.00,,,0.00,VWS V14.00,2013-06-07 08:31:00,
2013-06-07 04:36:00,74.1,71.6,29.77,South,182,0.0,5.0,92,0.00,,,0.00,VWS V14.00,2013-06-07 08:36:00,
2013-06-07 04:41:00,74.1,71.6,29.77,SW,215,0.0,5.0,92,0.00,,,0.00,VWS V14.00,2013-06-07 08:41:00,
2013-06-07 04:46:00,74.2,71.7,29.78,SW,218,0.0,5.0,92,0.00,,,0.00,VWS V14.00,2013-06-07 08:46:00,
2013-06-07 04:51:00,74.2,71.7,29.78,SSE,168,0.0,5.0,92,0.00,,,0.00,VWS V14.00,2013-06-07 08:51:00,
2013-06-07 04:57:00,74.2,71.7,29.78,SSW,213,0.0,5.0,92,0.00,,,0.00,VWS V14.00,2013-06-07 08:57:00,
2013-06-07 05:00:00,74.1,71.6,29.77,SW,217,0.0,6.0,92,0.00,,,0.00,VWS V14.00,2013-06-07 09:00:00,
2013-06-07 05:02:00,74.2,71.4,29.78,SSE,161,1.0,3.0,91,0.00,,,0.00,VWS V14.00,2013-06-07 09:02:00,
2013-06-07 05:07:00,74.3,71.5,29.78,SW,230,0.0,3.0,91,0.00,,,0.00,VWS V14.00,2013-06-07 09:07:00,
2013-06-07 05:12:00,74.3,71.5,29.79,SW,217,0.0,3.0,91,0.00,,,0.00,VWS V14.00,2013-06-07 09:12:00,
2013-06-07 05:17:00,74.3,71.5,29.79,SW,232,0.0,6.0,91,0.00,,,0.00,VWS V14.00,2013-06-07 09:17:00,
2013-06-07 05:22:00,74.4,71.6,29.80,SSE,161,0.0,6.0,91,0.00,,,0.00,VWS V14.00,2013-06-07 09:22:00,
2013-06-07 05:28:00,74.4,71.6,29.80,SW,219,0.0,6.0,91,0.00,,,0.00,VWS V14.00,2013-06-07 09:28:00,
2013-06-07 05:30:00,74.0,71.5,29.77,SW,234,0.0,6.0,92,0.00,,,0.00,VWS V14.00,2013-06-07 09:30:00,
2013-06-07 05:33:00,74.4,71.6,29.81,South,188,0.0,0.0,91,0.00,,,0.00,VWS V14.00,2013-06-07 09:33:00,
2013-06-07 05:38:00,74.5,71.7,29.81,SSW,205,0.0,4.0,91,0.00,,,0.00,VWS V14.00,2013-06-07 09:38:00,
2013-06-07 05:43:00,74.4,71.6,29.82,SSW,196,0.0,4.0,91,0.00,,,0.00,VWS V14.00,2013-06-07 09:43:00,
2013-06-07 05:48:00,74.4,71.6,29.82,WSW,240,0.0,5.0,91,0.00,,,0.00,VWS V14.00,2013-06-07 09:48:00,
2013-06-07 05:53:00,74.3,71.5,29.82,SW,225,0.0,5.0,91,0.00,,,0.00,VWS V14.00,2013-06-07 09:53:00,
2013-06-07 05:58:00,74.2,71.4,29.82,SW,217,0.0,5.0,91,0.00,,,0.00,VWS V14.00,2013-06-07 09:58:00,
2013-06-07 06:00:00,74.2,71.4,29.78,SSW,211,0.0,5.0,91,0.00,,,0.00,VWS V14.00,2013-06-07 10:00:00,
2013-06-07 06:03:00,74.1,71.3,29.82,SW,217,0.0,0.0,91,0.00,,,0.00,VWS V14.00,2013-06-07 10:03:00,
2013-06-07 06:09:00,74.0,71.2,29.83,SW,232,0.0,1.0,91,0.00,,,0.00,VWS V14.00,2013-06-07 10:09:00,
2013-06-07 06:14:00,73.9,71.4,29.83,SSW,210,0.0,1.0,92,0.00,,,0.00,VWS V14.00,2013-06-07 10:14:00,
2013-06-07 06:19:00,73.8,71.3,29.83,SW,222,0.0,5.0,92,0.00,,,0.00,VWS V14.00,2013-06-07 10:19:00,
2013-06-07 06:24:00,73.7,71.2,29.83,SW,218,0.0,5.0,92,0.00,,,0.00,VWS V14.00,2013-06-07 10:24:00,
2013-06-07 06:29:00,73.7,71.2,29.83,WSW,238,0.0,5.0,92,0.00,,,0.00,VWS V14.00,2013-06-07 10:29:00,
2013-06-07 06:30:00,74.4,71.6,29.81,SSW,203,0.0,6.0,91,0.00,,,0.00,VWS V14.00,2013-06-07 10:30:00,
2013-06-07 06:34:00,73.7,71.2,29.83,SSW,192,0.0,0.0,92,0.00,,,0.00,VWS V14.00,2013-06-07 10:34:00,
2013-06-07 06:39:00,73.6,71.1,29.83,South,176,0.0,0.0,92,0.00,,,0.00,VWS V14.00,2013-06-07 10:39:00,
2013-06-07 06:45:00,73.6,71.5,29.83,South,182,0.0,1.0,93,0.00,,,0.00,VWS V14.00,2013-06-07 10:45:00,
2013-06-07 06:50:00,73.5,71.4,29.84,South,182,0.0,1.0,93,0.00,,,0.00,VWS V14.00,2013-06-07 10:50:00,
2013-06-07 06:55:00,73.5,71.4,29.84,SSW,213,0.0,1.0,93,0.00,,,0.00,VWS V14.00,2013-06-07 10:55:00,
2013-06-07 07:00:00,73.6,71.5,29.84,SSW,212,0.0,1.0,93,0.00,,,0.00,VWS V14.00,2013-06-07 11:00:00,
2013-06-07 07:05:00,73.7,71.6,29.84,SSW,212,0.0,0.0,93,0.00,,,0.00,VWS V14.00,2013-06-07 11:05:00,
2013-06-07 07:10:00,73.7,71.6,29.85,SSW,211,0.0,0.0,93,0.00,,,0.00,VWS V14.00,2013-06-07 11:10:00,
2013-06-07 07:15:00,73.8,71.7,29.85,SSW,212,0.0,0.0,93,0.00,,,0.00,VWS V14.00,2013-06-07 11:15:00,
2013-06-07 07:20:00,73.9,71.8,29.85,South,191,0.0,4.0,93,0.00,,,0.00,VWS V14.00,2013-06-07 11:20:00,
2013-06-07 07:25:00,74.1,71.9,29.85,SW,214,0.0,6.0,93,0.00,,,0.00,VWS V14.00,2013-06-07 11:25:00,
2013-06-07 07:30:00,74.3,72.2,29.85,SSE,159,0.0,6.0,93,0.00,,,0.00,VWS V14.00,2013-06-07 11:30:00,
2013-06-07 07:35:00,74.4,72.2,29.86,SSW,207,0.0,4.0,93,0.00,,,0.00,VWS V14.00,2013-06-07 11:35:00,
2013-06-07 07:40:00,74.6,72.1,29.86,South,186,1.0,4.0,92,0.00,,,0.00,VWS V14.00,2013-06-07 11:40:00,
2013-06-07 07:45:00,74.8,72.3,29.86,SW,214,0.0,4.0,92,0.00,,,0.00,VWS V14.00,2013-06-07 11:45:00,
2013-06-07 07:50:00,74.9,72.4,29.86,South,190,0.0,5.0,92,0.00,,,0.00,VWS V14.00,2013-06-07 11:50:00,
2013-06-07 07:55:00,75.1,72.6,29.86,SSW,207,0.0,5.0,92,0.00,,,0.00,VWS V14.00,2013-06-07 11:55:00,
2013-06-07 08:00:00,73.6,71.5,29.84,SSW,211,0.0,1.0,93,0.00,,,0.00,VWS V14.00,2013-06-07 12:00:00,
2013-06-07 08:01:00,75.2,72.4,29.86,SSE,152,2.0,5.0,91,0.00,,,0.00,VWS V14.00,2013-06-07 12:01:00,
2013-06-07 08:06:00,75.3,72.5,29.86,East,100,0.0,1.0,91,0.00,,,0.00,VWS V14.00,2013-06-07 12:06:00,
2013-06-07 08:11:00,75.4,72.6,29.86,SSW,196,0.0,3.0,91,0.00,,,0.00,VWS V14.00,2013-06-07 12:11:00,
2013-06-07 08:17:00,75.5,72.7,29.87,SSW,213,0.0,4.0,91,0.00,,,0.00,VWS V14.00,2013-06-07 12:17:00,
2013-06-07 08:22:00,75.7,72.9,29.87,SW,232,0.0,4.0,91,0.00,,,0.00,VWS V14.00,2013-06-07 12:22:00,
2013-06-07 08:27:00,75.9,73.1,29.87,SSW,198,0.0,4.0,91,0.00,,,0.00,VWS V14.00,2013-06-07 12:27:00,
2013-06-07 08:30:00,74.3,72.2,29.85,SSW,195,0.0,6.0,93,0.00,,,0.00,VWS V14.00,2013-06-07 12:30:00,
2013-06-07 08:32:00,76.0,72.9,29.87,SSW,193,0.0,0.0,90,0.00,,,0.00,VWS V14.00,2013-06-07 12:32:00,
2013-06-07 08:37:00,76.1,73.0,29.87,WSW,254,0.0,1.0,90,0.00,,,0.00,VWS V14.00,2013-06-07 12:37:00,
2013-06-07 08:42:00,76.1,73.0,29.87,SW,230,0.0,1.0,90,0.00,,,0.00,VWS V14.00,2013-06-07 12:42:00,
2013-06-07 08:47:00,76.1,73.0,29.88,South,169,0.0,1.0,90,0.00,,,0.00,VWS V14.00,2013-06-07 12:47:00,
2013-06-07 08:52:00,76.0,72.9,29.88,SSW,200,0.0,1.0,90,0.00,,,0.00,VWS V14.00,2013-06-07 12:52:00,
2013-06-07 08:57:00,76.0,72.9,29.88,SSW,192,0.0,5.0,90,0.00,,,0.00,VWS V14.00,2013-06-07 12:57:00,
2013-06-07 09:00:00,75.2,72.4,29.86,South,182,0.0,5.0,91,0.00,,,0.00,VWS V14.00,2013-06-07 13:00:00,
2013-06-07 09:02:00,76.1,73.0,29.88,South,169,0.0,0.0,90,0.00,,,0.00,VWS V14.00,2013-06-07 13:02:00,
2013-06-07 09:08:00,76.1,73.0,29.89,SW,223,0.0,4.0,90,0.00,,,0.00,VWS V14.00,2013-06-07 13:08:00,
2013-06-07 09:13:00,76.2,73.1,29.88,South,189,0.0,4.0,90,0.00,,,0.00,VWS V14.00,2013-06-07 13:13:00,
2013-06-07 09:18:00,76.4,73.2,29.89,SW,222,0.0,4.0,90,0.00,,,0.00,VWS V14.00,2013-06-07 13:18:00,
2013-06-07 09:23:00,76.6,73.4,29.89,SW,219,0.0,5.0,90,0.00,,,0.00,VWS V14.00,2013-06-07 13:23:00,
2013-06-07 09:28:00,76.8,73.3,29.89,WSW,256,0.0,5.0,89,0.00,,,0.00,VWS V14.00,2013-06-07 13:28:00,
2013-06-07 09:30:00,76.0,73.2,29.87,SSW,192,0.0,4.0,91,0.00,,,0.00,VWS V14.00,2013-06-07 13:30:00,
2013-06-07 09:33:00,77.2,73.7,29.89,SSW,210,4.0,4.0,89,0.00,,,0.00,VWS V14.00,2013-06-07 13:33:00,
2013-06-07 09:38:00,77.3,73.5,29.89,SW,217,0.0,8.0,88,0.00,,,0.00,VWS V14.00,2013-06-07 13:38:00,
2013-06-07 09:43:00,77.5,73.3,29.89,SSW,204,0.0,8.0,87,0.00,,,0.00,VWS V14.00,2013-06-07 13:43:00,
2013-06-07 09:48:00,77.6,73.4,29.89,West,259,0.0,8.0,87,0.00,,,0.00,VWS V14.00,2013-06-07 13:48:00,
2013-06-07 09:53:00,77.9,73.7,29.89,SSE,161,0.0,8.0,87,0.00,,,0.00,VWS V14.00,2013-06-07 13:53:00,
2013-06-07 09:59:00,78.2,73.7,29.90,WSW,249,0.0,8.0,86,0.00,,,0.00,VWS V14.00,2013-06-07 13:59:00,
2013-06-07 10:00:00,76.1,73.0,29.88,SSW,192,0.0,5.0,90,0.00,,,0.00,VWS V14.00,2013-06-07 14:00:00,
2013-06-07 10:04:00,78.7,74.2,29.90,SW,221,0.0,7.0,86,0.00,,,0.00,VWS V14.00,2013-06-07 14:04:00,
2013-06-07 10:09:00,78.9,73.7,29.89,South,175,0.0,7.0,84,0.00,,,0.00,VWS V14.00,2013-06-07 14:09:00,
2013-06-07 10:14:00,79.4,74.2,29.89,WSW,238,0.0,7.0,84,0.00,,,0.00,VWS V14.00,2013-06-07 14:14:00,
2013-06-07 10:19:00,79.8,74.2,29.89,SSW,213,0.0,7.0,83,0.00,,,0.00,VWS V14.00,2013-06-07 14:19:00,
2013-06-07 10:24:00,80.4,74.4,29.90,SW,217,0.0,7.0,82,0.00,,,0.00,VWS V14.00,2013-06-07 14:24:00,
2013-06-07 10:29:00,80.6,74.2,29.90,West,277,0.0,7.0,81,0.00,,,0.00,VWS V14.00,2013-06-07 14:29:00,
2013-06-07 10:30:00,77.0,73.5,29.89,SW,224,0.0,5.0,89,0.00,,,0.00,VWS V14.00,2013-06-07 14:30:00,
2013-06-07 10:35:00,81.0,74.6,29.90,West,260,3.0,5.0,81,0.00,,,0.00,VWS V14.00,2013-06-07 14:35:00,
2013-06-07 10:40:00,81.3,73.8,29.90,South,173,0.0,6.0,78,0.00,,,0.00,VWS V14.00,2013-06-07 14:40:00,
2013-06-07 10:45:00,81.6,74.5,29.90,NW,307,0.0,6.0,79,0.00,,,0.00,VWS V14.00,2013-06-07 14:45:00,
2013-06-07 10:50:00,81.6,74.1,29.90,SW,218,0.0,6.0,78,0.00,,,0.00,VWS V14.00,2013-06-07 14:50:00,
2013-06-07 10:55:00,81.8,74.3,29.91,SW,214,0.0,6.0,78,0.00,,,0.00,VWS V14.00,2013-06-07 14:55:00,
2013-06-07 11:00:00,82.0,74.8,29.90,SW,232,0.0,6.0,79,0.00,,,0.00,VWS V14.00,2013-06-07 15:00:00,
2013-06-07 11:05:00,82.2,74.7,29.90,SSW,195,0.0,5.0,78,0.00,,,0.00,VWS V14.00,2013-06-07 15:05:00,
2013-06-07 11:11:00,82.5,74.6,29.91,SW,218,0.0,5.0,77,0.00,,,0.00,VWS V14.00,2013-06-07 15:11:00,
2013-06-07 11:16:00,83.0,74.7,29.91,SW,229,2.0,7.0,76,0.00,,,0.00,VWS V14.00,2013-06-07 15:16:00,
2013-06-07 11:21:00,83.7,74.5,29.91,SW,221,10.0,10.0,74,0.00,,,0.00,VWS V14.00,2013-06-07 15:21:00,
2013-06-07 11:26:00,84.2,74.6,29.91,WSW,247,0.0,10.0,73,0.00,,,0.00,VWS V14.00,2013-06-07 15:26:00,
2013-06-07 11:30:00,80.7,74.0,29.90,South,188,1.0,10.0,80,0.00,,,0.00,VWS V14.00,2013-06-07 15:30:00,
2013-06-07 11:31:00,84.1,74.1,29.91,SW,234,0.0,10.0,72,0.00,,,0.00,VWS V14.00,2013-06-07 15:31:00,
2013-06-07 11:37:00,83.8,73.8,29.91,SSW,209,0.0,5.0,72,0.00,,,0.00,VWS V14.00,2013-06-07 15:37:00,
2013-06-07 11:42:00,83.9,74.3,29.91,SW,229,0.0,5.0,73,0.00,,,0.00,VWS V14.00,2013-06-07 15:42:00,
2013-06-07 11:47:00,84.1,74.1,29.91,SSW,209,0.0,5.0,72,0.00,,,0.00,VWS V14.00,2013-06-07 15:47:00,
2013-06-07 11:52:00,83.7,74.1,29.91,SW,217,0.0,9.0,73,0.00,,,0.00,VWS V14.00,2013-06-07 15:52:00,
2013-06-07 11:57:00,83.9,74.3,29.92,WSW,241,0.0,9.0,73,0.00,,,0.00,VWS V14.00,2013-06-07 15:57:00,
2013-06-07 12:00:00,82.1,74.6,29.91,West,261,0.0,6.0,78,0.00,,,0.00,VWS V14.00,2013-06-07 16:00:00,
2013-06-07 12:02:00,84.0,74.0,29.92,South,190,0.0,1.0,72,0.00,,,0.00,VWS V14.00,2013-06-07 16:02:00,
2013-06-07 12:07:00,84.0,74.0,29.91,SSE,154,2.0,7.0,72,0.00,,,0.00,VWS V14.00,2013-06-07 16:07:00,
2013-06-07 12:12:00,84.0,73.2,29.91,SE,146,0.0,7.0,70,0.00,,,0.00,VWS V14.00,2013-06-07 16:12:00,
2013-06-07 12:18:00,83.9,73.9,29.91,WSW,246,0.0,7.0,72,0.00,,,0.00,VWS V14.00,2013-06-07 16:18:00,
2013-06-07 12:23:00,84.1,74.1,29.91,South,181,0.0,7.0,72,0.00,,,0.00,VWS V14.00,2013-06-07 16:23:00,
2013-06-07 12:28:00,84.6,73.7,29.91,SSW,200,0.0,7.0,70,0.00,,,0.00,VWS V14.00,2013-06-07 16:28:00,
2013-06-07 12:30:00,84.1,74.5,29.91,SSE,157,0.0,10.0,73,0.00,,,0.00,VWS V14.00,2013-06-07 16:30:00,
2013-06-07 12:33:00,85.2,74.3,29.91,South,186,1.0,2.0,70,0.00,,,0.00,VWS V14.00,2013-06-07 16:33:00,
2013-06-07 12:38:00,85.7,73.9,29.91,WSW,249,0.0,6.0,68,0.00,,,0.00,VWS V14.00,2013-06-07 16:38:00,
2013-06-07 12:43:00,85.8,74.0,29.91,WSW,253,0.0,6.0,68,0.00,,,0.00,VWS V14.00,2013-06-07 16:43:00,
2013-06-07 12:48:00,86.2,74.4,29.91,South,174,0.0,6.0,68,0.00,,,0.00,VWS V14.00,2013-06-07 16:48:00,
2013-06-07 12:54:00,86.2,74.4,29.91,SSW,196,0.0,6.0,68,0.00,,,0.00,VWS V14.00,2013-06-07 16:54:00,
2013-06-07 12:59:00,86.6,74.8,29.91,South,182,1.0,6.0,68,0.00,,,0.00,VWS V14.00,2013-06-07 16:59:00,
2013-06-07 13:00:00,84.1,74.1,29.92,SE,144,1.0,9.0,72,0.00,,,0.00,VWS V14.00,2013-06-07 17:00:00,
2013-06-07 13:04:00,86.5,74.2,29.91,SW,225,0.0,1.0,67,0.00,,,0.00,VWS V14.00,2013-06-07 17:04:00,
2013-06-07 13:09:00,86.5,74.2,29.91,South,174,0.0,3.0,67,0.00,,,0.00,VWS V14.00,2013-06-07 17:09:00,
2013-06-07 13:15:00,86.7,74.4,29.91,WSW,242,2.0,9.0,67,0.00,,,0.00,VWS V14.00,2013-06-07 17:15:00,
2013-06-07 13:20:00,86.8,74.5,29.90,South,176,0.0,9.0,67,0.00,,,0.00,VWS V14.00,2013-06-07 17:20:00,
2013-06-07 13:25:00,87.4,75.1,29.90,SW,225,0.0,9.0,67,0.00,,,0.00,VWS V14.00,2013-06-07 17:25:00,
2013-06-07 13:30:00,87.6,74.8,29.90,SW,233,0.0,9.0,66,0.00,,,0.00,VWS V14.00,2013-06-07 17:30:00,
2013-06-07 13:35:00,87.1,74.8,29.90,WSW,258,0.0,10.0,67,0.00,,,0.00,VWS V14.00,2013-06-07 17:35:00,
2013-06-07 13:41:00,86.7,74.4,29.89,SW,223,0.0,10.0,67,0.00,,,0.00,VWS V14.00,2013-06-07 17:41:00,
2013-06-07 13:46:00,86.9,75.5,29.89,SSW,211,0.0,10.0,69,0.00,,,0.00,VWS V14.00,2013-06-07 17:46:00,
2013-06-07 13:51:00,87.2,74.9,29.89,SW,234,0.0,10.0,67,0.00,,,0.00,VWS V14.00,2013-06-07 17:51:00,
2013-06-07 13:56:00,87.1,74.8,29.89,SW,230,0.0,10.0,67,0.00,,,0.00,VWS V14.00,2013-06-07 17:56:00,
2013-06-07 14:00:00,86.6,73.9,29.91,WSW,252,0.0,6.0,66,0.00,,,0.00,VWS V14.00,2013-06-07 18:00:00,
2013-06-07 14:01:00,87.2,74.5,29.89,SW,225,0.0,10.0,66,0.00,,,0.00,VWS V14.00,2013-06-07 18:01:00,
2013-06-07 14:06:00,87.9,75.6,29.89,SSW,192,0.0,6.0,67,0.00,,,0.00,VWS V14.00,2013-06-07 18:06:00,
2013-06-07 14:11:00,88.6,75.3,29.89,South,187,0.0,6.0,65,0.00,,,0.00,VWS V14.00,2013-06-07 18:11:00,
2013-06-07 14:17:00,88.6,74.9,29.89,SW,234,0.0,7.0,64,0.00,,,0.00,VWS V14.00,2013-06-07 18:17:00,
2013-06-07 14:22:00,88.6,74.4,29.88,WSW,252,0.0,7.0,63,0.00,,,0.00,VWS V14.00,2013-06-07 18:22:00,
2013-06-07 14:28:00,88.2,74.5,29.88,SSW,211,0.0,10.0,64,0.00,,,0.00,VWS V14.00,2013-06-07 18:28:00,
2013-06-07 14:30:00,87.4,75.1,29.90,SW,215,0.0,9.0,67,0.00,,,0.00,VWS V14.00,2013-06-07 18:30:00,
2013-06-07 14:33:00,88.8,75.1,29.88,SW,226,0.0,2.0,64,0.00,,,0.00,VWS V14.00,2013-06-07 18:33:00,
2013-06-07 14:38:00,89.2,74.0,29.88,SW,230,0.0,4.0,61,0.00,,,0.00,VWS V14.00,2013-06-07 18:38:00,
2013-06-07 14:43:00,89.2,75.0,29.88,SW,214,0.0,4.0,63,0.00,,,0.00,VWS V14.00,2013-06-07 18:43:00,
2013-06-07 14:48:00,89.1,74.4,29.88,SSW,194,0.0,4.0,62,0.00,,,0.00,VWS V14.00,2013-06-07 18:48:00,
2013-06-07 14:55:00,88.9,74.7,29.88,SW,228,0.0,4.0,63,0.00,,,0.00,VWS V14.00,2013-06-07 18:55:00,
2013-06-07 15:00:00,89.4,74.7,29.88,SW,226,0.0,4.0,62,0.00,,,0.00,VWS V14.00,2013-06-07 19:00:00,
2013-06-07 15:05:00,90.1,74.3,29.87,WSW,254,0.0,7.0,60,0.00,,,0.00,VWS V14.00,2013-06-07 19:05:00,
2013-06-07 15:11:00,90.6,74.8,29.88,SSW,206,0.0,7.0,60,0.00,,,0.00,VWS V14.00,2013-06-07 19:11:00,
2013-06-07 15:17:00,90.3,74.5,29.87,SSW,211,4.0,7.0,60,0.00,,,0.00,VWS V14.00,2013-06-07 19:17:00,
2013-06-07 15:23:00,90.1,74.8,29.87,WSW,249,0.0,7.0,61,0.00,,,0.00,VWS V14.00,2013-06-07 19:23:00,
2013-06-07 15:28:00,90.2,74.9,29.87,WSW,248,0.0,7.0,61,0.00,,,0.00,VWS V14.00,2013-06-07 19:28:00,
2013-06-07 15:30:00,88.6,75.3,29.88,WSW,247,0.0,10.0,65,0.00,,,0.00,VWS V14.00,2013-06-07 19:30:00,
2013-06-07 15:34:00,89.8,74.6,29.87,West,264,0.0,0.0,61,0.00,,,0.00,VWS V14.00,2013-06-07 19:34:00,
2013-06-07 15:39:00,89.1,73.9,29.87,SSE,168,0.0,1.0,61,0.00,,,0.00,VWS V14.00,2013-06-07 19:39:00,
2013-06-07 15:44:00,88.8,74.1,29.87,WSW,248,0.0,6.0,62,0.00,,,0.00,VWS V14.00,2013-06-07 19:44:00,
2013-06-07 15:50:00,88.8,74.1,29.87,SW,235,0.0,6.0,62,0.00,,,0.00,VWS V14.00,2013-06-07 19:50:00,
2013-06-07 15:55:00,88.4,73.7,29.87,SSW,207,0.0,6.0,62,0.00,,,0.00,VWS V14.00,2013-06-07 19:55:00,
2013-06-07 16:00:00,88.1,73.9,29.87,WSW,253,1.0,6.0,63,0.00,,,0.00,VWS V14.00,2013-06-07 20:00:00,
2013-06-07 16:06:00,87.9,74.2,29.87,SSW,203,0.0,5.0,64,0.00,,,0.00,VWS V14.00,2013-06-07 20:06:00,
2013-06-07 16:12:00,87.8,74.1,29.87,SW,229,0.0,5.0,64,0.00,,,0.00,VWS V14.00,2013-06-07 20:12:00,
2013-06-07 16:17:00,88.1,74.4,29.87,SSW,192,0.0,5.0,64,0.00,,,0.00,VWS V14.00,2013-06-07 20:17:00,
2013-06-07 16:22:00,88.4,74.2,29.87,South,187,0.0,5.0,63,0.00,,,0.00,VWS V14.00,2013-06-07 20:22:00,
2013-06-07 16:28:00,88.5,74.3,29.87,SSE,164,0.0,5.0,63,0.00,,,0.00,VWS V14.00,2013-06-07 20:28:00,
2013-06-07 16:30:00,90.1,74.8,29.87,WSW,242,0.0,7.0,61,0.00,,,0.00,VWS V14.00,2013-06-07 20:30:00,
2013-06-07 16:34:00,88.4,74.2,29.88,SW,227,0.0,3.0,63,0.00,,,0.00,VWS V14.00,2013-06-07 20:34:00,
2013-06-07 16:39:00,88.1,74.4,29.88,WSW,246,0.0,3.0,64,0.00,,,0.00,VWS V14.00,2013-06-07 20:39:00,
2013-06-07 16:45:00,87.9,74.2,29.88,WSW,245,0.0,3.0,64,0.00,,,0.00,VWS V14.00,2013-06-07 20:45:00,
2013-06-07 16:50:00,87.5,73.8,29.88,WSW,247,0.0,4.0,64,0.00,,,0.00,VWS V14.00,2013-06-07 20:50:00,
2013-06-07 16:56:00,87.1,73.4,29.88,SW,229,3.0,5.0,64,0.00,,,0.00,VWS V14.00,2013-06-07 20:56:00,
2013-06-07 17:00:00,88.0,73.4,29.87,SSE,152,0.0,6.0,62,0.00,,,0.00,VWS V14.00,2013-06-07 21:00:00,
2013-06-07 17:01:00,87.1,73.9,29.88,SW,228,0.0,5.0,65,0.00,,,0.00,VWS V14.00,2013-06-07 21:01:00,
2013-06-07 17:07:00,87.3,74.1,29.88,SW,214,0.0,5.0,65,0.00,,,0.00,VWS V14.00,2013-06-07 21:07:00,
2013-06-07 17:12:00,87.2,74.0,29.88,SSW,199,0.0,5.0,65,0.00,,,0.00,VWS V14.00,2013-06-07 21:12:00,
2013-06-07 17:17:00,87.0,73.8,29.88,SW,222,0.0,5.0,65,0.00,,,0.00,VWS V14.00,2013-06-07 21:17:00,
2013-06-07 17:22:00,86.8,74.1,29.88,South,171,0.0,5.0,66,0.00,,,0.00,VWS V14.00,2013-06-07 21:22:00,
2013-06-07 17:28:00,86.5,73.8,29.88,WSW,244,3.0,7.0,66,0.00,,,0.00,VWS V14.00,2013-06-07 21:28:00,
2013-06-07 17:30:00,88.5,74.3,29.88,SW,220,3.0,5.0,63,0.00,,,0.00,VWS V14.00,2013-06-07 21:30:00,
2013-06-07 17:33:00,86.4,74.2,29.88,WSW,240,0.0,0.0,67,0.00,,,0.00,VWS V14.00,2013-06-07 21:33:00,
2013-06-07 17:38:00,86.5,74.7,29.88,SSE,152,0.0,2.0,68,0.00,,,0.00,VWS V14.00,2013-06-07 21:38:00,
2013-06-07 17:44:00,86.6,74.3,29.88,SW,215,0.0,2.0,67,0.00,,,0.00,VWS V14.00,2013-06-07 21:44:00,
2013-06-07 17:49:00,86.9,74.6,29.88,SSW,213,0.0,2.0,67,0.00,,,0.00,VWS V14.00,2013-06-07 21:49:00,
2013-06-07 17:54:00,86.7,74.0,29.88,SSE,152,0.0,5.0,66,0.00,,,0.00,VWS V14.00,2013-06-07 21:54:00,
2013-06-07 18:00:00,86.2,74.0,29.88,South,186,3.0,9.0,67,0.00,,,0.00,VWS V14.00,2013-06-07 22:00:00,
2013-06-07 18:05:00,85.9,74.1,29.88,SSW,205,0.0,6.0,68,0.00,,,0.00,VWS V14.00,2013-06-07 22:05:00,
2013-06-07 18:10:00,85.7,74.4,29.88,SW,229,0.0,6.0,69,0.00,,,0.00,VWS V14.00,2013-06-07 22:10:00,
2013-06-07 18:15:00,85.6,74.3,29.88,SSW,199,0.0,6.0,69,0.00,,,0.00,VWS V14.00,2013-06-07 22:15:00,
2013-06-07 18:21:00,85.5,74.2,29.88,SW,215,0.0,6.0,69,0.00,,,0.00,VWS V14.00,2013-06-07 22:21:00,
2013-06-07 18:27:00,85.3,74.4,29.88,SW,215,0.0,6.0,70,0.00,,,0.00,VWS V14.00,2013-06-07 22:27:00,
2013-06-07 18:30:00,86.4,73.7,29.88,WSW,242,0.0,7.0,66,0.00,,,0.00,VWS V14.00,2013-06-07 22:30:00,
2013-06-07 18:32:00,85.4,74.5,29.88,SSW,198,0.0,0.0,70,0.00,,,0.00,VWS V14.00,2013-06-07 22:32:00,
2013-06-07 18:37:00,85.5,75.4,29.88,SSW,198,0.0,0.0,72,0.00,,,0.00,VWS V14.00,2013-06-07 22:37:00,
2013-06-07 18:42:00,85.5,75.4,29.88,SW,223,0.0,0.0,72,0.00,,,0.00,VWS V14.00,2013-06-07 22:42:00,
2013-06-07 18:48:00,85.5,75.0,29.88,SSW,209,0.0,5.0,71,0.00,,,0.00,VWS V14.00,2013-06-07 22:48:00,
2013-06-07 18:53:00,85.6,75.1,29.88,South,182,0.0,5.0,71,0.00,,,0.00,VWS V14.00,2013-06-07 22:53:00,
2013-06-07 18:58:00,85.4,74.5,29.88,SSW,212,0.0,6.0,70,0.00,,,0.00,VWS V14.00,2013-06-07 22:58:00,
2013-06-07 19:00:00,86.0,73.8,29.88,SW,218,0.0,9.0,67,0.00,,,0.00,VWS V14.00,2013-06-07 23:00:00,
2013-06-07 19:03:00,85.1,74.2,29.88,South,189,0.0,1.0,70,0.00,,,0.00,VWS V14.00,2013-06-07 23:03:00,
2013-06-07 19:08:00,84.8,73.9,29.89,SSW,206,0.0,3.0,70,0.00,,,0.00,VWS V14.00,2013-06-07 23:08:00,
2013-06-07 19:14:00,84.7,73.4,29.89,SW,224,0.0,4.0,69,0.00,,,0.00,VWS V14.00,2013-06-07 23:14:00,
2013-06-07 19:19:00,84.4,73.1,29.89,SW,217,0.0,4.0,69,0.00,,,0.00,VWS V14.00,2013-06-07 23:19:00,
2013-06-07 19:24:00,84.1,73.3,29.89,SW,217,0.0,4.0,70,0.00,,,0.00,VWS V14.00,2013-06-07 23:24:00,
2013-06-07 19:29:00,84.0,73.2,29.89,WSW,252,0.0,4.0,70,0.00,,,0.00,VWS V14.00,2013-06-07 23:29:00,
2013-06-07 19:30:00,85.3,74.4,29.88,SSW,197,0.0,6.0,70,0.00,,,0.00,VWS V14.00,2013-06-07 23:30:00,
2013-06-07 19:35:00,83.9,73.1,29.90,SW,232,0.0,0.0,70,0.00,,,0.00,VWS V14.00,2013-06-07 23:35:00,
2013-06-07 19:41:00,83.7,72.9,29.90,South,176,0.0,1.0,70,0.00,,,0.00,VWS V14.00,2013-06-07 23:41:00,
2013-06-07 19:48:00,83.6,72.8,29.90,South,178,0.0,1.0,70,0.00,,,0.00,VWS V14.00,2013-06-07 23:48:00,
2013-06-07 19:53:00,83.4,72.6,29.90,SSW,202,0.0,1.0,70,0.00,,,0.00,VWS V14.00,2013-06-07 23:53:00,
2013-06-07 19:58:00,83.2,72.4,29.90,SSW,209,0.0,1.0,70,0.00,,,0.00,VWS V14.00,2013-06-07 23:58:00,
2013-06-07 20:00:00,85.2,74.3,29.88,South,173,0.0,6.0,70,0.00,,,0.00,VWS V14.00,2013-06-08 00:00:00,
2013-06-07 20:03:00,83.0,72.6,29.90,SSW,209,0.0,0.0,71,0.00,,,0.00,VWS V14.00,2013-06-08 00:03:00,
2013-06-07 20:09:00,82.9,72.5,29.90,SSW,200,0.0,1.0,71,0.00,,,0.00,VWS V14.00,2013-06-08 00:09:00,
2013-06-07 20:14:00,82.7,72.3,29.90,SSW,209,1.0,5.0,71,0.00,,,0.00,VWS V14.00,2013-06-08 00:14:00,
2013-06-07 20:19:00,82.4,72.1,29.90,SSW,201,0.0,5.0,71,0.00,,,0.00,VWS V14.00,2013-06-08 00:19:00,
2013-06-07 20:25:00,82.2,72.3,29.91,SSW,200,0.0,5.0,72,0.00,,,0.00,VWS V14.00,2013-06-08 00:25:00,
2013-06-07 20:30:00,82.1,72.2,29.91,SSW,200,0.0,5.0,72,0.00,,,0.00,VWS V14.00,2013-06-08 00:30:00,
2013-06-07 20:35:00,81.9,72.0,29.91,SSW,200,0.0,0.0,72,0.00,,,0.00,VWS V14.00,2013-06-08 00:35:00,
2013-06-07 20:40:00,81.7,72.6,29.91,SSW,200,0.0,0.0,74,0.00,,,0.00,VWS V14.00,2013-06-08 00:40:00,
2013-06-07 20:46:00,81.3,72.2,29.91,SSW,200,0.0,0.0,74,0.00,,,0.00,VWS V14.00,2013-06-08 00:46:00,
2013-06-07 20:52:00,81.0,72.3,29.91,SSW,200,0.0,0.0,75,0.00,,,0.00,VWS V14.00,2013-06-08 00:52:00,
2013-06-07 20:57:00,80.8,72.5,29.91,SSW,200,0.0,0.0,76,0.00,,,0.00,VWS V14.00,2013-06-08 00:57:00,
2013-06-07 21:00:00,83.1,72.7,29.90,SSW,209,0.0,1.0,71,0.00,,,0.00,VWS V14.00,2013-06-08 01:00:00,
2013-06-07 21:02:00,80.5,72.2,29.91,SSW,200,0.0,0.0,76,0.00,,,0.00,VWS V14.00,2013-06-08 01:02:00,
2013-06-07 21:07:00,80.2,71.9,29.91,SSW,200,0.0,0.0,76,0.00,,,0.00,VWS V14.00,2013-06-08 01:07:00,
2013-06-07 21:13:00,80.0,71.8,29.91,SSW,200,0.0,0.0,76,0.00,,,0.00,VWS V14.00,2013-06-08 01:13:00,
2013-06-07 21:18:00,79.9,71.7,29.91,SSW,200,0.0,0.0,76,0.00,,,0.00,VWS V14.00,2013-06-08 01:18:00,
2013-06-07 21:24:00,79.8,71.6,29.91,South,174,0.0,0.0,76,0.00,,,0.00,VWS V14.00,2013-06-08 01:24:00,
2013-06-07 21:29:00,79.8,71.6,29.91,South,177,0.0,3.0,76,0.00,,,0.00,VWS V14.00,2013-06-08 01:29:00,
2013-06-07 21:30:00,82.0,72.1,29.91,SSW,200,0.0,5.0,72,0.00,,,0.00,VWS V14.00,2013-06-08 01:30:00,
2013-06-07 21:34:00,79.7,71.5,29.91,South,176,0.0,0.0,76,0.00,,,0.00,VWS V14.00,2013-06-08 01:34:00,
2013-06-07 21:39:00,79.6,71.8,29.92,South,177,0.0,0.0,77,0.00,,,0.00,VWS V14.00,2013-06-08 01:39:00,
2013-06-07 21:44:00,79.4,71.6,29.92,South,176,0.0,0.0,77,0.00,,,0.00,VWS V14.00,2013-06-08 01:44:00,
2013-06-07 21:49:00,79.2,71.4,29.92,South,177,0.0,0.0,77,0.00,,,0.00,VWS V14.00,2013-06-08 01:49:00,
2013-06-07 21:54:00,79.1,71.3,29.93,SW,223,0.0,0.0,77,0.00,,,0.00,VWS V14.00,2013-06-08 01:54:00,
2013-06-07 21:59:00,79.0,71.2,29.93,SSW,209,0.0,1.0,77,0.00,,,0.00,VWS V14.00,2013-06-08 01:59:00,
2013-06-07 22:00:00,80.5,71.8,29.91,SSW,200,0.0,0.0,75,0.00,,,0.00,VWS V14.00,2013-06-08 02:00:00,
2013-06-07 22:06:00,78.9,71.5,29.93,SSW,203,0.0,0.0,78,0.00,,,0.00,VWS V14.00,2013-06-08 02:06:00,
2013-06-07 22:11:00,78.8,71.4,29.93,SW,223,0.0,1.0,78,0.00,,,0.00,VWS V14.00,2013-06-08 02:11:00,
2013-06-07 22:16:00,78.8,71.4,29.93,SW,223,0.0,1.0,78,0.00,,,0.00,VWS V14.00,2013-06-08 02:16:00,
2013-06-07 22:21:00,78.7,71.3,29.93,SW,223,0.0,1.0,78,0.00,,,0.00,VWS V14.00,2013-06-08 02:21:00,
2013-06-07 22:27:00,78.7,71.6,29.93,SW,223,0.0,1.0,79,0.00,,,0.00,VWS V14.00,2013-06-08 02:27:00,
2013-06-07 22:30:00,79.8,71.6,29.91,South,176,0.0,3.0,76,0.00,,,0.00,VWS V14.00,2013-06-08 02:30:00,
2013-06-07 22:32:00,78.4,71.3,29.94,SW,223,0.0,0.0,79,0.00,,,0.00,VWS V14.00,2013-06-08 02:32:00,
2013-06-07 22:37:00,78.2,71.5,29.94,SW,223,0.0,0.0,80,0.00,,,0.00,VWS V14.00,2013-06-08 02:37:00,
2013-06-07 22:42:00,78.1,71.4,29.94,SW,223,0.0,0.0,80,0.00,,,0.00,VWS V14.00,2013-06-08 02:42:00,
2013-06-07 22:48:00,77.9,71.2,29.94,SW,223,0.0,0.0,80,0.00,,,0.00,VWS V14.00,2013-06-08 02:48:00,
2013-06-07 22:53:00,77.7,71.4,29.95,SW,223,0.0,1.0,81,0.00,,,0.00,VWS V14.00,2013-06-08 02:53:00,
2013-06-07 22:59:00,77.6,71.3,29.95,SW,223,0.0,1.0,81,0.00,,,0.00,VWS V14.00,2013-06-08 02:59:00,
2013-06-07 23:00:00,79.0,71.2,29.93,SSW,203,0.0,1.0,77,0.00,,,0.00,VWS V14.00,2013-06-08 03:00:00,
2013-06-07 23:05:00,77.5,71.2,29.95,SSW,211,0.0,0.0,81,0.00,,,0.00,VWS V14.00,2013-06-08 03:05:00,
2013-06-07 23:10:00,77.5,71.6,29.95,SSW,211,0.0,0.0,82,0.00,,,0.00,VWS V14.00,2013-06-08 03:10:00,
2013-06-07 23:15:00,77.4,71.5,29.95,SSW,211,0.0,0.0,82,0.00,,,0.00,VWS V14.00,2013-06-08 03:15:00,
2013-06-07 23:21:00,77.3,71.4,29.95,SSW,210,0.0,0.0,82,0.00,,,0.00,VWS V14.00,2013-06-08 03:21:00,
2013-06-07 23:28:00,77.2,71.3,29.95,SSW,202,0.0,0.0,82,0.00,,,0.00,VWS V14.00,2013-06-08 03:28:00,
2013-06-07 23:30:00,78.4,71.3,29.94,SW,223,0.0,1.0,79,0.00,,,0.00,VWS V14.00,2013-06-08 03:30:00,
2013-06-07 23:33:00,77.2,71.6,29.95,SSW,202,0.0,0.0,83,0.00,,,0.00,VWS V14.00,2013-06-08 03:33:00,
2013-06-07 23:38:00,77.1,71.5,29.95,SSW,202,0.0,0.0,83,0.00,,,0.00,VWS V14.00,2013-06-08 03:38:00,